CheckWX is a tool to help pilots better visualize weather data.  It is not intended as a substitute for an official pre-flight weather briefing.

13:42:09 UTC

CYXN METAR
Whale Cove Airport
Whale Cove, Canada
Current

16 hours ago

CYXN 192200Z 34012KT 15SM FEW052 14/06 A2970 RMK SC2 R0.0MM AFT 1200Z SLP059 DENSITY ALT 300FT
Observed
Jul-19 @ 22:00 UTC
Wind
  • 340° at 12 KTS
Visibility
15 SM
Flight Rules
VFR
Cloud Levels
  • Few at 5,200' AGL
Temperature
14°C / 57°F
Dewpoint
C / 43°F
Humidity
59%
Altimeter
29.7" Hg
Pressure
1005.72 hPa
Previous

17 hours ago

CYXN 192100Z 35011KT 15SM SCT043 15/05 A2969 RMK SC3 SLP057 DENSITY ALT 300FT
Observed
Jul-19 @ 21:00 UTC
Wind
  • 350° at 11 KTS
Visibility
15 SM
Flight Rules
VFR
Cloud Levels
  • Scattered at 4,300' AGL
Temperature
15°C / 59°F
Dewpoint
C / 41°F
Humidity
51%
Altimeter
29.69" Hg
Pressure
1005.42 hPa
Previous

18 hours ago

CYXN 192000Z 34012KT 15SM FEW037 15/05 A2968 RMK SC2 SLP053 DENSITY ALT 300FT
Observed
Jul-19 @ 20:00 UTC
Wind
  • 340° at 12 KTS
Visibility
15 SM
Flight Rules
VFR
Cloud Levels
  • Few at 3,700' AGL
Temperature
15°C / 59°F
Dewpoint
C / 41°F
Humidity
51%
Altimeter
29.68" Hg
Pressure
1005.12 hPa